Terminal Aerodrome Forecast
Issued by NWS

Home | Current Version | Previous Version | Text Only | Print | Product List | Glossary On
Versions: 1 2 3 4 5 6 7 8 9 10 11 12 13 14 15 16 17 18 19 20 21 22 23 24
000
FTUS41 KCTP 292141 AAB
TAFLNS
TAF AMD
KLNS 292141Z 2922/3018 22008KT P6SM SCT080
     FM300000 17002KT P6SM -SHRA OVC100
     FM300300 15002KT 4SM RA OVC030
     FM301200 28003KT 4SM BR OVC025 PROB30 3012/3013 4SM -RA OVC025=

USA.gov is the U.S. government's official web portal to all federal, state and local government web resources and services.